KBOK/BOK METAR and TAF weather

Enter ICAO airport designator
Station Type Date Time Source
KBOK METAR 2021/01/22 05:56 UTC NOAA

KBOK 220556Z AUTO VRB03KT 10SM -RA FEW006 BKN026 OVC039 07/07 A2989 RMK AO2 SLP123 P0010 6//// T00720067 10100 20072 56011


Station Type Date Time Source
KBOK Decoded METAR 2021/01/22 05:56 UTC NOAA

Brookings, Brookings Airport, OR, United States (KBOK) 42-04-28N 124-17-24W
Jan 22, 2021 - 12:56 AM EST / 2021.01.22 0556 UTC
Wind: Variable at 3 MPH (3 KT):0
Visibility: 10 mile(s):0
Sky conditions: overcast
Weather: light rain
Precipitation last hour: 0.10 inches
Temperature: 45.0 F (7.2 C)
Dew Point: 44.1 F (6.7 C)
Relative Humidity: 96%
Pressure (altimeter): 29.89 in. Hg (1012 hPa)
Pressure tendency: 0.03 inches (1.1 hPa) lower than three hours ago
ob: KBOK 220556Z AUTO VRB03KT 10SM -RA FEW006 BKN026 OVC039 07/07 A2989 RMK AO2 SLP123 P0010 6//// T00720067 10100 20072 56011
cycle: 6

Station Type Date Time Source
KBOK TAF UTC NOAA

Error!

Example: see airport list